This is the latest recevied weather packets stored in our database for station/object LEMD. If no packets are shown the sender has not sent any weather packets the latest 10 day(s).
| Time | Temp. | Humidity | Pressure | Rain* | Wind** | Luminosity | Snow |
|---|---|---|---|---|---|---|---|
| 1777920303 | 17.78° C | 42% | 1012 hPa | - | - | - | - |
| 1777917605 | 18.89° C | 39% | 1011 hPa | - | - | - | - |
| 1777916704 | 18.89° C | 39% | 1011 hPa | - | - | - | - |
| 1777915805 | 17.78° C | 42% | 1011 hPa | - | - | - | - |
| 1777914905 | 17.78° C | 42% | 1011 hPa | - | - | - | - |
| 1777914004 | 20° C | 32% | 1011 hPa | - | - | - | - |
| 1777913103 | 20° C | 32% | 1011 hPa | - | - | - | - |
| 1777912205 | 18.89° C | 34% | 1011 hPa | - | - | - | - |
| 1777911303 | 18.89° C | 34% | 1011 hPa | - | - | - | - |
| 1777909504 | 20° C | 28% | 1011 hPa | - | - | - | - |
| 1777907704 | 21.11° C | 30% | 1011 hPa | - | - | - | - |
| 1777906806 | 20° C | 32% | 1011 hPa | - | - | - | - |
| 1777905904 | 20° C | 32% | 1011 hPa | - | - | - | - |
| 1777904104 | 20° C | 34% | 1012 hPa | - | - | - | - |
| 1777903204 | 18.89° C | 39% | 1012 hPa | - | - | - | - |
| 1777897804 | 18.89° C | 39% | 1012 hPa | - | - | - | - |
| 1777896904 | 18.89° C | 39% | 1012 hPa | - | - | - | - |
| 1777896004 | 17.78° C | 39% | 1013 hPa | - | - | - | - |
| 1777894204 | 17.78° C | 45% | 1013 hPa | - | - | - | - |
| 1777893304 | 17.78° C | 45% | 1013 hPa | - | - | - | - |
| 1777889704 | 15° C | 62% | 1013 hPa | - | - | - | - |
| 1777888805 | 13.89° C | 67% | 1013 hPa | - | - | - | - |
| 1777887005 | 13.89° C | 67% | 1013 hPa | - | - | - | - |
| 1777886104 | 13.89° C | 67% | 1013 hPa | - | - | - | - |
| 1777885204 | 12.78° C | 71% | 1013 hPa | - | - | - | - |
* Rain since midnight (hover to see other rain measurements)
** Current wind speed in m/s (hover to see current wind gust speed)